sensor_id;sensor_type;location;lat;lon;timestamp;pressure;altitude;pressure_sealevel;temperature;humidity
77881;BME280;67077;50.298;18.996;2023-04-01T00:01:14;96239.62;;;7.56;72.86
77881;BME280;67077;50.298;18.996;2023-04-01T00:03:44;96238.49;;;7.52;73.07
77881;BME280;67077;50.298;18.996;2023-04-01T00:06:14;96236.00;;;7.51;73.12
77881;BME280;67077;50.298;18.996;2023-04-01T00:08:43;96234.14;;;7.50;72.92
77881;BME280;67077;50.298;18.996;2023-04-01T00:11:12;96237.14;;;7.46;73.19
77881;BME280;67077;50.298;18.996;2023-04-01T00:13:41;96234.41;;;7.40;73.16
77881;BME280;67077;50.298;18.996;2023-04-01T00:16:10;96229.94;;;7.33;73.36
77881;BME280;67077;50.298;18.996;2023-04-01T00:18:38;96227.77;;;7.25;73.49
77881;BME280;67077;50.298;18.996;2023-04-01T00:21:06;96226.98;;;7.20;73.72
77881;BME280;67077;50.298;18.996;2023-04-01T00:23:34;96224.03;;;7.17;73.87
77881;BME280;67077;50.298;18.996;2023-04-01T00:26:03;96226.02;;;7.14;73.82
77881;BME280;67077;50.298;18.996;2023-04-01T00:28:34;96227.03;;;7.09;73.96
77881;BME280;67077;50.298;18.996;2023-04-01T00:31:06;96234.56;;;7.06;74.35
77881;BME280;67077;50.298;18.996;2023-04-01T00:33:35;96234.41;;;7.05;74.51
77881;BME280;67077;50.298;18.996;2023-04-01T00:36:13;96235.63;;;7.06;74.85
77881;BME280;67077;50.298;18.996;2023-04-01T00:38:42;96235.34;;;7.12;74.69
77881;BME280;67077;50.298;18.996;2023-04-01T00:41:11;96230.65;;;7.18;74.70
77881;BME280;67077;50.298;18.996;2023-04-01T00:43:44;96233.06;;;7.20;74.74
77881;BME280;67077;50.298;18.996;2023-04-01T00:46:13;96234.16;;;7.21;74.87
77881;BME280;67077;50.298;18.996;2023-04-01T00:48:47;96229.50;;;7.19;74.76
77881;BME280;67077;50.298;18.996;2023-04-01T00:51:22;96228.10;;;7.19;74.84
77881;BME280;67077;50.298;18.996;2023-04-01T00:53:53;96227.66;;;7.22;74.78
77881;BME280;67077;50.298;18.996;2023-04-01T00:59:02;96237.98;;;7.19;74.89
77881;BME280;67077;50.298;18.996;2023-04-01T01:01:33;96242.11;;;7.16;74.94
77881;BME280;67077;50.298;18.996;2023-04-01T01:04:03;96245.49;;;7.11;75.01
77881;BME280;67077;50.298;18.996;2023-04-01T01:06:46;96244.55;;;7.09;75.26
77881;BME280;67077;50.298;18.996;2023-04-01T01:09:33;96241.81;;;7.10;75.41
77881;BME280;67077;50.298;18.996;2023-04-01T01:12:19;96240.41;;;7.10;75.33
77881;BME280;67077;50.298;18.996;2023-04-01T01:23:29;96237.84;;;7.13;75.74
77881;BME280;67077;50.298;18.996;2023-04-01T01:37:33;96219.73;;;7.23;75.76
77881;BME280;67077;50.298;18.996;2023-04-01T01:40:05;96214.38;;;7.24;75.67
77881;BME280;67077;50.298;18.996;2023-04-01T01:42:37;96216.79;;;7.24;75.68
77881;BME280;67077;50.298;18.996;2023-04-01T01:45:07;96212.92;;;7.21;75.74
77881;BME280;67077;50.298;18.996;2023-04-01T01:47:37;96212.83;;;7.15;75.71
77881;BME280;67077;50.298;18.996;2023-04-01T01:50:08;96209.06;;;7.12;75.86
77881;BME280;67077;50.298;18.996;2023-04-01T01:52:37;96205.92;;;7.10;75.72
77881;BME280;67077;50.298;18.996;2023-04-01T01:55:30;96213.17;;;7.06;76.04
77881;BME280;67077;50.298;18.996;2023-04-01T01:58:01;96211.52;;;6.98;75.98
77881;BME280;67077;50.298;18.996;2023-04-01T02:00:30;96215.95;;;6.90;76.31
77881;BME280;67077;50.298;18.996;2023-04-01T02:02:59;96219.73;;;6.83;76.37
77881;BME280;67077;50.298;18.996;2023-04-01T02:05:29;96218.45;;;6.80;76.74
77881;BME280;67077;50.298;18.996;2023-04-01T02:08:08;96218.47;;;6.81;76.84
77881;BME280;67077;50.298;18.996;2023-04-01T02:10:42;96221.63;;;6.83;76.84
77881;BME280;67077;50.298;18.996;2023-04-01T02:13:17;96220.29;;;6.84;76.94
77881;BME280;67077;50.298;18.996;2023-04-01T02:15:49;96222.81;;;6.84;77.04
77881;BME280;67077;50.298;18.996;2023-04-01T02:18:19;96223.00;;;6.83;77.03
77881;BME280;67077;50.298;18.996;2023-04-01T02:20:49;96226.14;;;6.83;77.22
77881;BME280;67077;50.298;18.996;2023-04-01T02:23:18;96224.95;;;6.86;77.48
77881;BME280;67077;50.298;18.996;2023-04-01T02:25:46;96226.23;;;6.86;77.33
77881;BME280;67077;50.298;18.996;2023-04-01T02:28:16;96227.56;;;6.86;77.53
77881;BME280;67077;50.298;18.996;2023-04-01T02:30:48;96225.61;;;6.84;77.46
77881;BME280;67077;50.298;18.996;2023-04-01T02:33:19;96231.83;;;6.87;77.60
77881;BME280;67077;50.298;18.996;2023-04-01T02:35:48;96232.96;;;6.92;77.64
77881;BME280;67077;50.298;18.996;2023-04-01T02:38:16;96234.97;;;6.97;77.35
77881;BME280;67077;50.298;18.996;2023-04-01T02:40:47;96240.98;;;6.99;77.26
77881;BME280;67077;50.298;18.996;2023-04-01T02:43:16;96240.94;;;7.01;77.17
77881;BME280;67077;50.298;18.996;2023-04-01T02:45:44;96246.10;;;7.01;77.31
77881;BME280;67077;50.298;18.996;2023-04-01T02:48:12;96244.67;;;7.03;77.26
77881;BME280;67077;50.298;18.996;2023-04-01T02:50:41;96244.03;;;7.07;77.03
77881;BME280;67077;50.298;18.996;2023-04-01T02:53:09;96241.39;;;7.10;77.05
77881;BME280;67077;50.298;18.996;2023-04-01T02:55:38;96243.39;;;7.11;76.94
77881;BME280;67077;50.298;18.996;2023-04-01T02:58:05;96243.54;;;7.10;77.07
77881;BME280;67077;50.298;18.996;2023-04-01T03:00:34;96246.65;;;7.10;77.10
77881;BME280;67077;50.298;18.996;2023-04-01T03:03:02;96244.79;;;7.11;77.03
77881;BME280;67077;50.298;18.996;2023-04-01T03:05:30;96251.34;;;7.14;76.98
77881;BME280;67077;50.298;18.996;2023-04-01T03:07:58;96246.61;;;7.14;76.83
77881;BME280;67077;50.298;18.996;2023-04-01T03:10:26;96245.20;;;7.13;76.98
77881;BME280;67077;50.298;18.996;2023-04-01T03:12:54;96248.16;;;7.14;77.01
77881;BME280;67077;50.298;18.996;2023-04-01T03:15:22;96247.23;;;7.16;76.94
77881;BME280;67077;50.298;18.996;2023-04-01T03:17:50;96248.57;;;7.19;76.93
77881;BME280;67077;50.298;18.996;2023-04-01T03:20:19;96248.99;;;7.19;76.92
77881;BME280;67077;50.298;18.996;2023-04-01T03:22:46;96247.45;;;7.17;76.81
77881;BME280;67077;50.298;18.996;2023-04-01T03:25:14;96245.17;;;7.16;76.72
77881;BME280;67077;50.298;18.996;2023-04-01T03:27:43;96243.60;;;7.17;76.76
77881;BME280;67077;50.298;18.996;2023-04-01T03:30:10;96246.67;;;7.17;76.83
77881;BME280;67077;50.298;18.996;2023-04-01T03:32:39;96246.52;;;7.15;76.71
77881;BME280;67077;50.298;18.996;2023-04-01T03:35:07;96246.80;;;7.12;76.89
77881;BME280;67077;50.298;18.996;2023-04-01T03:37:37;96247.14;;;7.10;76.81
77881;BME280;67077;50.298;18.996;2023-04-01T03:40:05;96251.94;;;7.11;76.82
77881;BME280;67077;50.298;18.996;2023-04-01T03:42:34;96251.11;;;7.13;76.95
77881;BME280;67077;50.298;18.996;2023-04-01T03:45:04;96252.58;;;7.11;76.92
77881;BME280;67077;50.298;18.996;2023-04-01T03:47:32;96251.56;;;7.07;76.90
77881;BME280;67077;50.298;18.996;2023-04-01T03:50:00;96251.59;;;7.06;76.87
77881;BME280;67077;50.298;18.996;2023-04-01T03:52:28;96253.69;;;7.06;76.84
77881;BME280;67077;50.298;18.996;2023-04-01T03:54:56;96255.45;;;7.05;77.15
77881;BME280;67077;50.298;18.996;2023-04-01T03:57:24;96258.86;;;7.03;77.13
77881;BME280;67077;50.298;18.996;2023-04-01T03:59:52;96257.38;;;7.00;77.14
77881;BME280;67077;50.298;18.996;2023-04-01T04:02:20;96255.34;;;6.97;77.32
77881;BME280;67077;50.298;18.996;2023-04-01T04:04:48;96254.96;;;6.97;77.35
77881;BME280;67077;50.298;18.996;2023-04-01T04:07:16;96254.98;;;6.98;77.40
77881;BME280;67077;50.298;18.996;2023-04-01T04:09:44;96253.77;;;6.97;77.62
77881;BME280;67077;50.298;18.996;2023-04-01T04:12:12;96252.40;;;6.95;77.56
77881;BME280;67077;50.298;18.996;2023-04-01T04:14:40;96252.66;;;6.95;77.55
77881;BME280;67077;50.298;18.996;2023-04-01T04:17:10;96252.05;;;6.96;77.51
77881;BME280;67077;50.298;18.996;2023-04-01T04:19:43;96253.61;;;7.00;77.79
77881;BME280;67077;50.298;18.996;2023-04-01T04:22:12;96252.09;;;7.02;77.66
77881;BME280;67077;50.298;18.996;2023-04-01T04:24:40;96251.65;;;7.04;77.64
77881;BME280;67077;50.298;18.996;2023-04-01T04:27:08;96254.38;;;7.05;77.73
77881;BME280;67077;50.298;18.996;2023-04-01T04:29:36;96251.98;;;7.08;77.65
77881;BME280;67077;50.298;18.996;2023-04-01T04:32:05;96253.58;;;7.13;77.60
77881;BME280;67077;50.298;18.996;2023-04-01T04:34:33;96250.96;;;7.17;77.70
77881;BME280;67077;50.298;18.996;2023-04-01T04:37:01;96253.36;;;7.22;77.50
77881;BME280;67077;50.298;18.996;2023-04-01T04:39:29;96252.13;;;7.25;77.59
77881;BME280;67077;50.298;18.996;2023-04-01T04:41:57;96250.61;;;7.28;77.36
77881;BME280;67077;50.298;18.996;2023-04-01T04:44:25;96248.74;;;7.33;77.41
77881;BME280;67077;50.298;18.996;2023-04-01T04:46:53;96248.83;;;7.40;77.16
77881;BME280;67077;50.298;18.996;2023-04-01T04:49:21;96253.91;;;7.45;77.03
77881;BME280;67077;50.298;18.996;2023-04-01T04:51:49;96252.01;;;7.48;76.83
77881;BME280;67077;50.298;18.996;2023-04-01T04:54:18;96249.80;;;7.51;76.78
77881;BME280;67077;50.298;18.996;2023-04-01T04:56:45;96256.66;;;7.52;76.81
77881;BME280;67077;50.298;18.996;2023-04-01T04:59:13;96252.73;;;7.55;76.77
77881;BME280;67077;50.298;18.996;2023-04-01T05:01:41;96257.52;;;7.60;76.73
77881;BME280;67077;50.298;18.996;2023-04-01T05:04:09;96257.38;;;7.67;76.62
77881;BME280;67077;50.298;18.996;2023-04-01T05:06:37;96255.52;;;7.75;76.42
77881;BME280;67077;50.298;18.996;2023-04-01T05:09:05;96257.70;;;7.81;76.22
77881;BME280;67077;50.298;18.996;2023-04-01T05:11:33;96258.15;;;7.86;76.21
77881;BME280;67077;50.298;18.996;2023-04-01T05:14:01;96258.06;;;7.92;76.15
77881;BME280;67077;50.298;18.996;2023-04-01T05:16:29;96260.09;;;7.98;76.01
77881;BME280;67077;50.298;18.996;2023-04-01T05:18:59;96262.66;;;8.09;75.87
77881;BME280;67077;50.298;18.996;2023-04-01T05:21:27;96258.12;;;8.18;75.57
77881;BME280;67077;50.298;18.996;2023-04-01T05:23:55;96261.14;;;8.24;75.25
77881;BME280;67077;50.298;18.996;2023-04-01T05:26:22;96257.17;;;8.25;75.05
77881;BME280;67077;50.298;18.996;2023-04-01T05:28:50;96257.61;;;8.26;74.98
77881;BME280;67077;50.298;18.996;2023-04-01T05:31:18;96260.36;;;8.28;74.80
77881;BME280;67077;50.298;18.996;2023-04-01T05:33:46;96263.20;;;8.32;74.66
77881;BME280;67077;50.298;18.996;2023-04-01T05:36:15;96264.98;;;8.32;74.60
77881;BME280;67077;50.298;18.996;2023-04-01T05:38:44;96267.55;;;8.31;74.52
77881;BME280;67077;50.298;18.996;2023-04-01T05:41:14;96264.94;;;8.28;74.51
77881;BME280;67077;50.298;18.996;2023-04-01T05:43:43;96265.58;;;8.26;74.46
77881;BME280;67077;50.298;18.996;2023-04-01T05:46:11;96266.25;;;8.30;74.43
77881;BME280;67077;50.298;18.996;2023-04-01T05:48:39;96264.33;;;8.34;74.41
77881;BME280;67077;50.298;18.996;2023-04-01T05:51:15;96265.58;;;8.34;74.22
77881;BME280;67077;50.298;18.996;2023-04-01T05:53:43;96264.59;;;8.31;74.29
77881;BME280;67077;50.298;18.996;2023-04-01T05:56:12;96268.14;;;8.30;74.34
77881;BME280;67077;50.298;18.996;2023-04-01T05:58:40;96267.84;;;8.32;74.35
77881;BME280;67077;50.298;18.996;2023-04-01T06:01:10;96272.17;;;8.36;74.27
77881;BME280;67077;50.298;18.996;2023-04-01T06:03:39;96273.27;;;8.37;74.14
77881;BME280;67077;50.298;18.996;2023-04-01T06:06:33;96272.61;;;8.38;74.06
77881;BME280;67077;50.298;18.996;2023-04-01T06:09:16;96275.38;;;8.39;74.19
77881;BME280;67077;50.298;18.996;2023-04-01T06:20:20;96282.86;;;8.56;73.88
77881;BME280;67077;50.298;18.996;2023-04-01T06:22:58;96282.77;;;8.61;73.80
77881;BME280;67077;50.298;18.996;2023-04-01T06:36:53;96288.55;;;8.89;73.03
77881;BME280;67077;50.298;18.996;2023-04-01T06:45:30;96293.54;;;9.28;72.50
77881;BME280;67077;50.298;18.996;2023-04-01T06:48:31;96289.77;;;9.45;72.13
77881;BME280;67077;50.298;18.996;2023-04-01T06:51:23;96287.86;;;9.62;71.52
77881;BME280;67077;50.298;18.996;2023-04-01T06:54:20;96287.42;;;9.75;71.11
77881;BME280;67077;50.298;18.996;2023-04-01T06:56:53;96289.04;;;9.87;70.79
77881;BME280;67077;50.298;18.996;2023-04-01T06:59:28;96292.70;;;10.00;70.44
77881;BME280;67077;50.298;18.996;2023-04-01T07:02:11;96293.52;;;10.10;70.29
77881;BME280;67077;50.298;18.996;2023-04-01T07:04:51;96291.99;;;10.10;70.32
77881;BME280;67077;50.298;18.996;2023-04-01T07:09:59;96297.69;;;9.91;71.04
77881;BME280;67077;50.298;18.996;2023-04-01T07:12:40;96298.77;;;9.83;71.31
77881;BME280;67077;50.298;18.996;2023-04-01T07:15:24;96302.35;;;9.79;71.57
77881;BME280;67077;50.298;18.996;2023-04-01T07:17:56;96303.67;;;9.80;71.80
77881;BME280;67077;50.298;18.996;2023-04-01T07:20:32;96302.73;;;9.79;71.98
77881;BME280;67077;50.298;18.996;2023-04-01T07:23:07;96307.44;;;9.74;71.94
77881;BME280;67077;50.298;18.996;2023-04-01T07:25:44;96306.48;;;9.75;72.14
77881;BME280;67077;50.298;18.996;2023-04-01T07:28:15;96310.34;;;9.74;72.29
77881;BME280;67077;50.298;18.996;2023-04-01T07:30:55;96311.48;;;9.74;72.39
77881;BME280;67077;50.298;18.996;2023-04-01T07:36:36;96313.26;;;9.65;72.48
77881;BME280;67077;50.298;18.996;2023-04-01T07:39:24;96318.16;;;9.60;72.79
77881;BME280;67077;50.298;18.996;2023-04-01T07:50:29;96325.73;;;9.45;73.93
77881;BME280;67077;50.298;18.996;2023-04-01T07:53:18;96329.49;;;9.48;73.84
77881;BME280;67077;50.298;18.996;2023-04-01T07:59:09;96330.05;;;9.80;73.78
77881;BME280;67077;50.298;18.996;2023-04-01T08:01:55;96323.98;;;9.97;73.53
77881;BME280;67077;50.298;18.996;2023-04-01T08:07:21;96326.27;;;10.13;72.89
77881;BME280;67077;50.298;18.996;2023-04-01T08:12:31;96330.27;;;10.34;72.27
77881;BME280;67077;50.298;18.996;2023-04-01T08:23:26;96342.30;;;10.69;71.09
77881;BME280;67077;50.298;18.996;2023-04-01T08:26:13;96340.34;;;10.67;70.40
77881;BME280;67077;50.298;18.996;2023-04-01T08:29:09;96340.14;;;10.70;70.53
77881;BME280;67077;50.298;18.996;2023-04-01T08:34:21;96335.11;;;10.89;70.00
77881;BME280;67077;50.298;18.996;2023-04-01T08:37:15;96336.02;;;11.02;69.93
77881;BME280;67077;50.298;18.996;2023-04-01T08:39:54;96337.84;;;11.11;69.32
77881;BME280;67077;50.298;18.996;2023-04-01T08:57:03;96331.35;;;11.52;67.94
77881;BME280;67077;50.298;18.996;2023-04-01T08:59:47;96329.92;;;11.44;67.75
77881;BME280;67077;50.298;18.996;2023-04-01T09:02:35;96333.73;;;11.31;68.34
77881;BME280;67077;50.298;18.996;2023-04-01T09:08:36;96338.39;;;10.86;69.80
77881;BME280;67077;50.298;18.996;2023-04-01T09:11:20;96337.08;;;10.83;70.38
77881;BME280;67077;50.298;18.996;2023-04-01T09:14:07;96336.08;;;10.88;70.35
77881;BME280;67077;50.298;18.996;2023-04-01T09:27:57;96331.98;;;11.08;70.55
77881;BME280;67077;50.298;18.996;2023-04-01T09:30:53;96337.52;;;11.05;70.96
77881;BME280;67077;50.298;18.996;2023-04-01T09:36:47;96349.42;;;10.75;72.80
77881;BME280;67077;50.298;18.996;2023-04-01T09:45:33;96352.83;;;10.76;74.73
77881;BME280;67077;50.298;18.996;2023-04-01T09:59:58;96341.40;;;11.10;73.39
77881;BME280;67077;50.298;18.996;2023-04-01T10:08:36;96339.61;;;10.92;73.14
77881;BME280;67077;50.298;18.996;2023-04-01T10:36:40;96344.19;;;11.35;71.87
77881;BME280;67077;50.298;18.996;2023-04-01T10:50:53;96348.86;;;11.72;71.95
77881;BME280;67077;50.298;18.996;2023-04-01T10:53:46;96351.09;;;11.82;71.03
77881;BME280;67077;50.298;18.996;2023-04-01T10:59:25;96349.39;;;11.93;70.54
77881;BME280;67077;50.298;18.996;2023-04-01T11:29:50;96343.41;;;11.76;68.08
77881;BME280;67077;50.298;18.996;2023-04-01T11:41:39;96334.40;;;12.19;66.51
77881;BME280;67077;50.298;18.996;2023-04-01T11:44:28;96336.88;;;12.31;65.88
77881;BME280;67077;50.298;18.996;2023-04-01T12:04:11;96348.90;;;11.40;65.97
77881;BME280;67077;50.298;18.996;2023-04-01T12:06:53;96350.46;;;11.32;66.42
77881;BME280;67077;50.298;18.996;2023-04-01T12:09:42;96350.61;;;11.32;66.89
77881;BME280;67077;50.298;18.996;2023-04-01T12:27:14;96358.65;;;11.43;67.10
77881;BME280;67077;50.298;18.996;2023-04-01T12:30:12;96357.98;;;11.52;67.14
77881;BME280;67077;50.298;18.996;2023-04-01T12:36:23;96358.49;;;11.72;67.01
77881;BME280;67077;50.298;18.996;2023-04-01T12:41:46;96359.15;;;11.87;66.18
77881;BME280;67077;50.298;18.996;2023-04-01T12:47:26;96357.52;;;12.23;65.12
77881;BME280;67077;50.298;18.996;2023-04-01T12:50:19;96353.28;;;12.40;64.54
77881;BME280;67077;50.298;18.996;2023-04-01T12:53:01;96353.70;;;12.49;63.44
77881;BME280;67077;50.298;18.996;2023-04-01T12:55:41;96359.98;;;12.52;63.28
77881;BME280;67077;50.298;18.996;2023-04-01T12:58:27;96359.39;;;12.52;62.73
77881;BME280;67077;50.298;18.996;2023-04-01T13:09:10;96365.54;;;12.31;62.53
77881;BME280;67077;50.298;18.996;2023-04-01T13:17:24;96370.80;;;12.10;61.86
77881;BME280;67077;50.298;18.996;2023-04-01T13:25:53;96376.05;;;12.09;62.56
77881;BME280;67077;50.298;18.996;2023-04-01T13:28:34;96378.27;;;12.19;62.15
77881;BME280;67077;50.298;18.996;2023-04-01T13:39:23;96379.96;;;12.70;61.61
77881;BME280;67077;50.298;18.996;2023-04-01T13:44:38;96382.20;;;12.64;61.07
77881;BME280;67077;50.298;18.996;2023-04-01T13:47:17;96385.02;;;12.54;61.03
77881;BME280;67077;50.298;18.996;2023-04-01T14:01:41;96408.50;;;11.63;65.48
77881;BME280;67077;50.298;18.996;2023-04-01T14:13:03;96413.00;;;11.73;67.09
77881;BME280;67077;50.298;18.996;2023-04-01T14:15:53;96414.48;;;11.84;66.87
77881;BME280;67077;50.298;18.996;2023-04-01T14:18:37;96412.64;;;11.89;66.13
77881;BME280;67077;50.298;18.996;2023-04-01T14:21:30;96418.33;;;11.91;65.41
77881;BME280;67077;50.298;18.996;2023-04-01T14:24:50;96417.35;;;11.89;65.30
77881;BME280;67077;50.298;18.996;2023-04-01T14:35:50;96438.73;;;10.80;67.02
77881;BME280;67077;50.298;18.996;2023-04-01T14:42:14;96454.92;;;10.33;69.41
77881;BME280;67077;50.298;18.996;2023-04-01T14:48:00;96439.38;;;10.00;71.72
77881;BME280;67077;50.298;18.996;2023-04-01T14:51:16;96439.19;;;9.94;72.38
77881;BME280;67077;50.298;18.996;2023-04-01T14:56:48;96447.00;;;9.96;73.38
77881;BME280;67077;50.298;18.996;2023-04-01T15:01:50;96446.79;;;9.96;73.53
77881;BME280;67077;50.298;18.996;2023-04-01T15:19:22;96448.55;;;9.76;75.43
77881;BME280;67077;50.298;18.996;2023-04-01T15:25:13;96454.89;;;9.43;76.51
77881;BME280;67077;50.298;18.996;2023-04-01T15:27:55;96457.30;;;9.34;76.48
77881;BME280;67077;50.298;18.996;2023-04-01T15:30:52;96461.77;;;9.29;76.78
77881;BME280;67077;50.298;18.996;2023-04-01T15:44:03;96479.92;;;9.26;76.92
77881;BME280;67077;50.298;18.996;2023-04-01T15:46:47;96486.19;;;9.27;76.88
77881;BME280;67077;50.298;18.996;2023-04-01T15:49:41;96483.13;;;9.28;76.92
77881;BME280;67077;50.298;18.996;2023-04-01T15:55:14;96489.20;;;9.25;77.00
77881;BME280;67077;50.298;18.996;2023-04-01T16:01:04;96487.48;;;9.22;77.27
77881;BME280;67077;50.298;18.996;2023-04-01T16:03:53;96493.55;;;9.18;77.24
77881;BME280;67077;50.298;18.996;2023-04-01T16:06:49;96496.47;;;9.14;77.18
77881;BME280;67077;50.298;18.996;2023-04-01T16:09:24;96498.02;;;9.12;77.19
77881;BME280;67077;50.298;18.996;2023-04-01T16:20:52;96503.85;;;8.98;77.65
77881;BME280;67077;50.298;18.996;2023-04-01T16:23:35;96502.43;;;8.92;77.81
77881;BME280;67077;50.298;18.996;2023-04-01T16:34:21;96504.40;;;8.80;78.57
77881;BME280;67077;50.298;18.996;2023-04-01T16:37:14;96509.84;;;8.77;78.67
77881;BME280;67077;50.298;18.996;2023-04-01T16:40:10;96512.98;;;8.74;78.76
77881;BME280;67077;50.298;18.996;2023-04-01T16:43:07;96523.27;;;8.71;78.94
77881;BME280;67077;50.298;18.996;2023-04-01T16:45:43;96529.46;;;8.67;79.03
77881;BME280;67077;50.298;18.996;2023-04-01T16:48:20;96533.86;;;8.62;79.22
77881;BME280;67077;50.298;18.996;2023-04-01T16:51:09;96538.13;;;8.59;79.26
77881;BME280;67077;50.298;18.996;2023-04-01T16:54:04;96542.10;;;8.59;79.06
77881;BME280;67077;50.298;18.996;2023-04-01T16:59:45;96553.41;;;8.58;79.14
77881;BME280;67077;50.298;18.996;2023-04-01T17:02:16;96560.30;;;8.57;79.20
77881;BME280;67077;50.298;18.996;2023-04-01T17:04:58;96563.19;;;8.55;79.35
77881;BME280;67077;50.298;18.996;2023-04-01T17:10:37;96568.39;;;8.59;79.34
77881;BME280;67077;50.298;18.996;2023-04-01T17:14:08;96575.06;;;8.59;79.21
77881;BME280;67077;50.298;18.996;2023-04-01T17:21:27;96580.84;;;8.54;79.22
77881;BME280;67077;50.298;18.996;2023-04-01T17:24:00;96583.77;;;8.56;79.35
77881;BME280;67077;50.298;18.996;2023-04-01T17:26:54;96587.38;;;8.58;79.33
77881;BME280;67077;50.298;18.996;2023-04-01T17:35:30;96597.63;;;8.53;79.62
77881;BME280;67077;50.298;18.996;2023-04-01T17:38:07;96602.02;;;8.52;79.77
77881;BME280;67077;50.298;18.996;2023-04-01T17:40:44;96603.39;;;8.53;79.79
77881;BME280;67077;50.298;18.996;2023-04-01T17:52:00;96620.70;;;8.52;80.01
77881;BME280;67077;50.298;18.996;2023-04-01T17:54:51;96622.61;;;8.53;80.02
77881;BME280;67077;50.298;18.996;2023-04-01T17:57:52;96626.20;;;8.55;79.97
77881;BME280;67077;50.298;18.996;2023-04-01T18:00:25;96636.11;;;8.55;79.93
77881;BME280;67077;50.298;18.996;2023-04-01T18:03:21;96637.86;;;8.53;80.02
77881;BME280;67077;50.298;18.996;2023-04-01T18:06:14;96637.59;;;8.50;80.07
77881;BME280;67077;50.298;18.996;2023-04-01T18:22:28;96657.25;;;8.47;80.92
77881;BME280;67077;50.298;18.996;2023-04-01T18:25:19;96661.59;;;8.49;80.92
77881;BME280;67077;50.298;18.996;2023-04-01T18:27:53;96664.50;;;8.52;80.89
77881;BME280;67077;50.298;18.996;2023-04-01T18:30:28;96668.61;;;8.53;80.88
77881;BME280;67077;50.298;18.996;2023-04-01T18:36:18;96676.91;;;8.50;80.93
77881;BME280;67077;50.298;18.996;2023-04-01T18:44:43;96685.46;;;8.50;81.26
77881;BME280;67077;50.298;18.996;2023-04-01T18:53:15;96693.38;;;8.46;81.54
77881;BME280;67077;50.298;18.996;2023-04-01T18:55:50;96696.29;;;8.44;81.70
77881;BME280;67077;50.298;18.996;2023-04-01T19:01:14;96696.73;;;8.43;81.66
77881;BME280;67077;50.298;18.996;2023-04-01T19:06:51;96701.95;;;8.37;81.20
77881;BME280;67077;50.298;18.996;2023-04-01T19:09:31;96705.26;;;8.30;81.20
77881;BME280;67077;50.298;18.996;2023-04-01T19:15:02;96711.52;;;8.18;81.19
77881;BME280;67077;50.298;18.996;2023-04-01T19:17:44;96718.17;;;8.15;81.23
77881;BME280;67077;50.298;18.996;2023-04-01T19:20:50;96721.60;;;8.14;81.28
77881;BME280;67077;50.298;18.996;2023-04-01T19:29:06;96718.98;;;8.02;81.30
77881;BME280;67077;50.298;18.996;2023-04-01T19:37:32;96726.52;;;8.00;81.29
77881;BME280;67077;50.298;18.996;2023-04-01T19:57:02;96750.61;;;7.95;81.39
77881;BME280;67077;50.298;18.996;2023-04-01T20:02:43;96754.94;;;7.97;
77881;BME280;67077;50.298;18.996;2023-04-01T20:08:07;96758.16;;;7.90;81.75
77881;BME280;67077;50.298;18.996;2023-04-01T20:10:47;96760.83;;;7.89;81.73
77881;BME280;67077;50.298;18.996;2023-04-01T20:14:06;96762.25;;;7.91;81.85
77881;BME280;67077;50.298;18.996;2023-04-01T20:27:55;96767.70;;;7.89;81.98
77881;BME280;67077;50.298;18.996;2023-04-01T20:36:22;96775.56;;;7.96;82.15
77881;BME280;67077;50.298;18.996;2023-04-01T20:47:10;96783.17;;;7.95;82.38
77881;BME280;67077;50.298;18.996;2023-04-01T20:58:04;96788.54;;;7.95;82.60
77881;BME280;67077;50.298;18.996;2023-04-01T21:01:04;96789.74;;;7.90;82.72
77881;BME280;67077;50.298;18.996;2023-04-01T21:12:39;96799.31;;;7.88;83.18
77881;BME280;67077;50.298;18.996;2023-04-01T21:32:19;96814.90;;;7.92;83.80
77881;BME280;67077;50.298;18.996;2023-04-01T21:35:20;96814.52;;;7.92;83.64
77881;BME280;67077;50.298;18.996;2023-04-01T22:05:28;96826.71;;;8.06;83.82
77881;BME280;67077;50.298;18.996;2023-04-01T22:10:46;96829.60;;;8.13;83.71
77881;BME280;67077;50.298;18.996;2023-04-01T22:21:48;96836.71;;;7.99;83.64
77881;BME280;67077;50.298;18.996;2023-04-01T22:27:07;96841.83;;;8.02;83.75
77881;BME280;67077;50.298;18.996;2023-04-01T22:32:33;96844.85;;;8.04;83.84
77881;BME280;67077;50.298;18.996;2023-04-01T22:37:57;96849.26;;;8.01;83.87
77881;BME280;67077;50.298;18.996;2023-04-01T22:43:04;96847.23;;;8.03;83.90
77881;BME280;67077;50.298;18.996;2023-04-01T22:54:07;96858.11;;;8.00;83.89
77881;BME280;67077;50.298;18.996;2023-04-01T22:56:46;96862.29;;;7.97;83.88
77881;BME280;67077;50.298;18.996;2023-04-01T22:59:31;96862.69;;;7.98;83.96
77881;BME280;67077;50.298;18.996;2023-04-01T23:02:28;96864.23;;;7.99;83.96
77881;BME280;67077;50.298;18.996;2023-04-01T23:05:01;96863.62;;;7.99;83.90
77881;BME280;67077;50.298;18.996;2023-04-01T23:07:52;96865.22;;;7.96;83.91
77881;BME280;67077;50.298;18.996;2023-04-01T23:10:37;96864.70;;;7.93;84.07
77881;BME280;67077;50.298;18.996;2023-04-01T23:13:20;96865.75;;;7.90;84.17
77881;BME280;67077;50.298;18.996;2023-04-01T23:15:51;96869.05;;;7.90;84.17
77881;BME280;67077;50.298;18.996;2023-04-01T23:23:58;96867.77;;;7.94;84.38
77881;BME280;67077;50.298;18.996;2023-04-01T23:26:47;96871.06;;;7.91;84.44
77881;BME280;67077;50.298;18.996;2023-04-01T23:29:19;96870.48;;;7.87;84.36
77881;BME280;67077;50.298;18.996;2023-04-01T23:31:59;96871.25;;;7.85;84.40
77881;BME280;67077;50.298;18.996;2023-04-01T23:34:33;96872.59;;;7.85;84.52
77881;BME280;67077;50.298;18.996;2023-04-01T23:37:04;96875.23;;;7.85;84.50
77881;BME280;67077;50.298;18.996;2023-04-01T23:39:39;96879.73;;;7.86;84.61
77881;BME280;67077;50.298;18.996;2023-04-01T23:44:50;96886.25;;;7.81;84.56
77881;BME280;67077;50.298;18.996;2023-04-01T23:47:23;96888.13;;;7.79;84.64
77881;BME280;67077;50.298;18.996;2023-04-01T23:49:55;96889.77;;;7.80;84.73